sensor_id;sensor_type;location;lat;lon;timestamp;pressure;altitude;pressure_sealevel;temperature;humidity
74958;BME280;63741;42.624;26.276;2023-12-04T00:02:01;100187.75;;;6.85;79.78
74958;BME280;63741;42.624;26.276;2023-12-04T00:04:28;100207.16;;;7.16;79.18
74958;BME280;63741;42.624;26.276;2023-12-04T00:06:56;100200.91;;;7.01;79.87
74958;BME280;63741;42.624;26.276;2023-12-04T00:09:23;100201.28;;;6.44;80.99
74958;BME280;63741;42.624;26.276;2023-12-04T00:11:52;100216.81;;;6.49;81.72
74958;BME280;63741;42.624;26.276;2023-12-04T00:14:19;100217.25;;;6.74;81.71
74958;BME280;63741;42.624;26.276;2023-12-04T00:16:46;100209.31;;;6.92;78.94
74958;BME280;63741;42.624;26.276;2023-12-04T00:19:13;100221.44;;;6.61;79.64
74958;BME280;63741;42.624;26.276;2023-12-04T00:21:40;100230.72;;;6.51;79.50
74958;BME280;63741;42.624;26.276;2023-12-04T00:24:07;100238.00;;;6.46;80.08
74958;BME280;63741;42.624;26.276;2023-12-04T00:26:34;100230.91;;;6.81;80.27
74958;BME280;63741;42.624;26.276;2023-12-04T00:29:01;100245.13;;;6.44;78.93
74958;BME280;63741;42.624;26.276;2023-12-04T00:31:28;100236.09;;;6.82;78.76
74958;BME280;63741;42.624;26.276;2023-12-04T00:33:55;100243.44;;;6.93;78.16
74958;BME280;63741;42.624;26.276;2023-12-04T00:36:22;100268.44;;;6.84;77.74
74958;BME280;63741;42.624;26.276;2023-12-04T00:38:49;100257.69;;;6.54;79.30
74958;BME280;63741;42.624;26.276;2023-12-04T00:41:16;100244.88;;;6.66;80.36
74958;BME280;63741;42.624;26.276;2023-12-04T00:43:43;100258.38;;;6.75;81.30
74958;BME280;63741;42.624;26.276;2023-12-04T00:46:10;100262.03;;;6.55;80.14
74958;BME280;63741;42.624;26.276;2023-12-04T00:48:37;100255.69;;;6.42;79.70
74958;BME280;63741;42.624;26.276;2023-12-04T00:51:05;100259.31;;;6.74;82.20
74958;BME280;63741;42.624;26.276;2023-12-04T00:53:32;100257.56;;;6.40;77.24
74958;BME280;63741;42.624;26.276;2023-12-04T00:55:59;100241.63;;;6.26;78.97
74958;BME280;63741;42.624;26.276;2023-12-04T00:58:26;100237.75;;;6.33;78.61
74958;BME280;63741;42.624;26.276;2023-12-04T01:00:53;100247.75;;;6.26;80.48
74958;BME280;63741;42.624;26.276;2023-12-04T01:03:20;100238.69;;;6.15;78.28
74958;BME280;63741;42.624;26.276;2023-12-04T01:05:47;100251.56;;;5.83;79.09
74958;BME280;63741;42.624;26.276;2023-12-04T01:08:14;100262.19;;;6.18;80.76
74958;BME280;63741;42.624;26.276;2023-12-04T01:10:41;100256.84;;;6.37;80.58
74958;BME280;63741;42.624;26.276;2023-12-04T01:13:07;100256.50;;;6.95;81.21
74958;BME280;63741;42.624;26.276;2023-12-04T01:15:35;100255.06;;;7.05;80.90
74958;BME280;63741;42.624;26.276;2023-12-04T01:18:03;100253.91;;;6.60;79.09
74958;BME280;63741;42.624;26.276;2023-12-04T01:20:30;100248.34;;;6.66;77.33
74958;BME280;63741;42.624;26.276;2023-12-04T01:23:00;100237.16;;;6.78;78.79
74958;BME280;63741;42.624;26.276;2023-12-04T01:25:27;100247.09;;;6.56;78.11
74958;BME280;63741;42.624;26.276;2023-12-04T01:27:54;100265.56;;;6.72;78.89
74958;BME280;63741;42.624;26.276;2023-12-04T01:30:21;100268.38;;;6.34;76.24
74958;BME280;63741;42.624;26.276;2023-12-04T01:32:47;100256.94;;;6.52;80.62
74958;BME280;63741;42.624;26.276;2023-12-04T01:35:15;100266.50;;;6.36;79.35
74958;BME280;63741;42.624;26.276;2023-12-04T01:37:42;100266.97;;;6.62;80.95
74958;BME280;63741;42.624;26.276;2023-12-04T01:40:09;100260.88;;;6.44;77.91
74958;BME280;63741;42.624;26.276;2023-12-04T01:42:36;100266.97;;;6.27;75.68
74958;BME280;63741;42.624;26.276;2023-12-04T01:45:04;100284.72;;;5.86;75.84
74958;BME280;63741;42.624;26.276;2023-12-04T01:47:32;100275.81;;;6.43;79.08
74958;BME280;63741;42.624;26.276;2023-12-04T01:50:00;100272.84;;;6.49;80.37
74958;BME280;63741;42.624;26.276;2023-12-04T01:52:27;100280.41;;;6.38;75.70
74958;BME280;63741;42.624;26.276;2023-12-04T01:54:54;100286.63;;;6.01;75.66
74958;BME280;63741;42.624;26.276;2023-12-04T01:57:21;100275.69;;;6.27;77.03
74958;BME280;63741;42.624;26.276;2023-12-04T01:59:48;100275.41;;;6.16;77.93
74958;BME280;63741;42.624;26.276;2023-12-04T02:02:15;100279.75;;;6.35;77.50
74958;BME280;63741;42.624;26.276;2023-12-04T02:04:44;100248.44;;;6.13;79.85
74958;BME280;63741;42.624;26.276;2023-12-04T02:07:11;100255.03;;;5.83;76.20
74958;BME280;63741;42.624;26.276;2023-12-04T02:09:38;100264.28;;;5.92;74.17
74958;BME280;63741;42.624;26.276;2023-12-04T02:12:05;100267.00;;;5.53;73.28
74958;BME280;63741;42.624;26.276;2023-12-04T02:14:33;100258.59;;;5.82;74.99
74958;BME280;63741;42.624;26.276;2023-12-04T02:17:01;100275.56;;;5.75;76.97
74958;BME280;63741;42.624;26.276;2023-12-04T02:19:31;100276.69;;;5.89;76.79
74958;BME280;63741;42.624;26.276;2023-12-04T02:21:58;100279.81;;;5.97;79.63
74958;BME280;63741;42.624;26.276;2023-12-04T02:24:25;100279.72;;;6.17;77.94
74958;BME280;63741;42.624;26.276;2023-12-04T02:26:57;100284.22;;;5.96;77.40
74958;BME280;63741;42.624;26.276;2023-12-04T02:29:51;100288.53;;;5.97;78.58
74958;BME280;63741;42.624;26.276;2023-12-04T02:32:21;100287.66;;;6.16;79.03
74958;BME280;63741;42.624;26.276;2023-12-04T02:34:52;100293.31;;;6.60;78.79
74958;BME280;63741;42.624;26.276;2023-12-04T02:37:21;100298.47;;;6.10;73.56
74958;BME280;63741;42.624;26.276;2023-12-04T02:39:50;100302.81;;;6.97;76.86
74958;BME280;63741;42.624;26.276;2023-12-04T02:42:22;100308.47;;;6.90;78.79
74958;BME280;63741;42.624;26.276;2023-12-04T02:44:51;100321.09;;;6.66;70.67
74958;BME280;63741;42.624;26.276;2023-12-04T02:47:18;100314.31;;;6.79;74.36
74958;BME280;63741;42.624;26.276;2023-12-04T02:49:46;100330.22;;;6.58;70.18
74958;BME280;63741;42.624;26.276;2023-12-04T02:52:13;100322.22;;;6.25;75.02
74958;BME280;63741;42.624;26.276;2023-12-04T02:54:40;100332.75;;;6.77;71.73
74958;BME280;63741;42.624;26.276;2023-12-04T02:57:07;100326.72;;;5.86;71.36
74958;BME280;63741;42.624;26.276;2023-12-04T02:59:34;100321.53;;;5.84;71.98
74958;BME280;63741;42.624;26.276;2023-12-04T03:02:01;100320.66;;;6.21;75.05
74958;BME280;63741;42.624;26.276;2023-12-04T03:04:28;100322.94;;;5.53;75.62
74958;BME280;63741;42.624;26.276;2023-12-04T03:06:57;100336.00;;;5.74;73.94
74958;BME280;63741;42.624;26.276;2023-12-04T03:09:24;100329.09;;;5.33;76.45
74958;BME280;63741;42.624;26.276;2023-12-04T03:12:11;100344.31;;;5.46;73.66
74958;BME280;63741;42.624;26.276;2023-12-04T03:14:38;100357.97;;;5.52;74.28
74958;BME280;63741;42.624;26.276;2023-12-04T03:17:05;100355.78;;;5.62;73.74
74958;BME280;63741;42.624;26.276;2023-12-04T03:19:32;100345.91;;;5.48;71.76
74958;BME280;63741;42.624;26.276;2023-12-04T03:22:00;100353.66;;;5.32;70.97
74958;BME280;63741;42.624;26.276;2023-12-04T03:24:26;100358.09;;;5.30;70.68
74958;BME280;63741;42.624;26.276;2023-12-04T03:26:54;100367.72;;;5.88;74.58
74958;BME280;63741;42.624;26.276;2023-12-04T03:29:21;100373.59;;;5.74;71.38
74958;BME280;63741;42.624;26.276;2023-12-04T03:31:48;100371.84;;;5.75;69.95
74958;BME280;63741;42.624;26.276;2023-12-04T03:34:15;100369.69;;;5.45;70.72
74958;BME280;63741;42.624;26.276;2023-12-04T03:36:42;100367.78;;;6.24;73.83
74958;BME280;63741;42.624;26.276;2023-12-04T03:39:09;100368.44;;;6.11;70.91
74958;BME280;63741;42.624;26.276;2023-12-04T03:41:36;100362.34;;;5.72;70.22
74958;BME280;63741;42.624;26.276;2023-12-04T03:44:03;100364.97;;;5.91;69.35
74958;BME280;63741;42.624;26.276;2023-12-04T03:46:30;100367.00;;;5.66;68.48
74958;BME280;63741;42.624;26.276;2023-12-04T03:48:57;100364.13;;;5.72;69.07
74958;BME280;63741;42.624;26.276;2023-12-04T03:51:25;100355.75;;;5.64;66.61
74958;BME280;63741;42.624;26.276;2023-12-04T03:53:52;100366.75;;;5.72;68.65
74958;BME280;63741;42.624;26.276;2023-12-04T03:56:19;100368.13;;;5.60;69.40
74958;BME280;63741;42.624;26.276;2023-12-04T03:58:46;100382.69;;;5.67;68.87
74958;BME280;63741;42.624;26.276;2023-12-04T04:01:13;100371.31;;;5.67;68.85
74958;BME280;63741;42.624;26.276;2023-12-04T04:03:40;100385.06;;;5.92;68.89
74958;BME280;63741;42.624;26.276;2023-12-04T04:06:07;100383.28;;;5.93;68.53
74958;BME280;63741;42.624;26.276;2023-12-04T04:08:34;100386.50;;;5.99;67.61
74958;BME280;63741;42.624;26.276;2023-12-04T04:11:02;100382.09;;;6.00;68.64
74958;BME280;63741;42.624;26.276;2023-12-04T04:13:29;100385.34;;;6.05;67.84
74958;BME280;63741;42.624;26.276;2023-12-04T04:15:56;100393.31;;;6.03;69.23
74958;BME280;63741;42.624;26.276;2023-12-04T04:18:23;100400.38;;;6.39;66.95
74958;BME280;63741;42.624;26.276;2023-12-04T04:20:50;100394.38;;;6.18;66.06
74958;BME280;63741;42.624;26.276;2023-12-04T04:23:17;100397.53;;;6.25;68.56
74958;BME280;63741;42.624;26.276;2023-12-04T04:25:44;100399.59;;;6.37;63.85
74958;BME280;63741;42.624;26.276;2023-12-04T04:28:11;100401.25;;;6.02;63.61
74958;BME280;63741;42.624;26.276;2023-12-04T04:30:38;100402.75;;;6.07;69.46
74958;BME280;63741;42.624;26.276;2023-12-04T04:33:06;100399.63;;;5.99;64.60
74958;BME280;63741;42.624;26.276;2023-12-04T04:35:33;100400.25;;;6.04;63.95
74958;BME280;63741;42.624;26.276;2023-12-04T04:38:00;100383.91;;;5.98;65.23
74958;BME280;63741;42.624;26.276;2023-12-04T04:40:27;100381.47;;;5.95;62.81
74958;BME280;63741;42.624;26.276;2023-12-04T04:42:54;100385.91;;;5.53;65.53
74958;BME280;63741;42.624;26.276;2023-12-04T04:45:21;100396.50;;;5.52;64.26
74958;BME280;63741;42.624;26.276;2023-12-04T04:47:48;100409.09;;;5.44;64.50
74958;BME280;63741;42.624;26.276;2023-12-04T04:50:15;100406.31;;;5.28;62.11
74958;BME280;63741;42.624;26.276;2023-12-04T04:52:42;100426.41;;;5.48;65.02
74958;BME280;63741;42.624;26.276;2023-12-04T04:55:09;100427.72;;;5.17;64.27
74958;BME280;63741;42.624;26.276;2023-12-04T04:57:56;100438.03;;;5.42;67.73
74958;BME280;63741;42.624;26.276;2023-12-04T05:00:24;100446.94;;;5.58;64.33
74958;BME280;63741;42.624;26.276;2023-12-04T05:02:52;100454.44;;;5.87;67.96
74958;BME280;63741;42.624;26.276;2023-12-04T05:05:18;100460.75;;;6.03;60.89
74958;BME280;63741;42.624;26.276;2023-12-04T05:07:45;100468.53;;;5.24;62.60
74958;BME280;63741;42.624;26.276;2023-12-04T05:10:12;100469.50;;;5.22;61.51
74958;BME280;63741;42.624;26.276;2023-12-04T05:12:39;100471.22;;;5.64;64.56
74958;BME280;63741;42.624;26.276;2023-12-04T05:15:07;100468.50;;;5.86;59.45
74958;BME280;63741;42.624;26.276;2023-12-04T05:17:34;100477.03;;;5.29;61.03
74958;BME280;63741;42.624;26.276;2023-12-04T05:20:01;100471.88;;;5.28;60.26
74958;BME280;63741;42.624;26.276;2023-12-04T05:22:28;100473.13;;;5.19;61.64
74958;BME280;63741;42.624;26.276;2023-12-04T05:24:55;100486.53;;;5.12;61.90
74958;BME280;63741;42.624;26.276;2023-12-04T05:27:22;100484.72;;;5.14;62.57
74958;BME280;63741;42.624;26.276;2023-12-04T05:29:49;100484.66;;;5.15;62.81
74958;BME280;63741;42.624;26.276;2023-12-04T05:32:16;100481.56;;;5.26;62.13
74958;BME280;63741;42.624;26.276;2023-12-04T05:34:43;100463.91;;;4.89;62.40
74958;BME280;63741;42.624;26.276;2023-12-04T05:37:10;100481.38;;;5.51;59.12
74958;BME280;63741;42.624;26.276;2023-12-04T05:39:37;100484.59;;;5.37;59.10
74958;BME280;63741;42.624;26.276;2023-12-04T05:42:04;100493.97;;;5.43;62.11
74958;BME280;63741;42.624;26.276;2023-12-04T05:44:31;100494.78;;;5.45;63.18
74958;BME280;63741;42.624;26.276;2023-12-04T05:46:58;100495.69;;;5.44;61.16
74958;BME280;63741;42.624;26.276;2023-12-04T05:49:25;100494.91;;;5.42;59.13
74958;BME280;63741;42.624;26.276;2023-12-04T05:51:52;100502.13;;;5.37;62.62
74958;BME280;63741;42.624;26.276;2023-12-04T05:54:19;100503.97;;;5.55;60.88
74958;BME280;63741;42.624;26.276;2023-12-04T05:56:46;100512.34;;;5.43;60.89
74958;BME280;63741;42.624;26.276;2023-12-04T05:59:13;100513.72;;;5.51;60.97
74958;BME280;63741;42.624;26.276;2023-12-04T06:01:41;100524.22;;;5.72;61.52
74958;BME280;63741;42.624;26.276;2023-12-04T06:04:08;100533.47;;;5.80;58.89
74958;BME280;63741;42.624;26.276;2023-12-04T06:06:35;100542.72;;;5.69;59.27
74958;BME280;63741;42.624;26.276;2023-12-04T06:09:02;100528.31;;;5.58;64.29
74958;BME280;63741;42.624;26.276;2023-12-04T06:11:31;100534.84;;;5.69;60.74
74958;BME280;63741;42.624;26.276;2023-12-04T06:13:58;100535.78;;;5.68;60.83
74958;BME280;63741;42.624;26.276;2023-12-04T06:16:25;100534.72;;;5.72;59.50
74958;BME280;63741;42.624;26.276;2023-12-04T06:18:52;100544.78;;;6.03;63.04
74958;BME280;63741;42.624;26.276;2023-12-04T06:21:19;100545.03;;;6.17;57.67
74958;BME280;63741;42.624;26.276;2023-12-04T06:23:46;100549.41;;;6.17;62.38
74958;BME280;63741;42.624;26.276;2023-12-04T06:26:14;100548.91;;;6.08;62.75
74958;BME280;63741;42.624;26.276;2023-12-04T06:28:41;100543.91;;;6.02;60.06
74958;BME280;63741;42.624;26.276;2023-12-04T06:31:09;100542.94;;;6.24;63.66
74958;BME280;63741;42.624;26.276;2023-12-04T06:33:36;100539.59;;;6.01;62.00
74958;BME280;63741;42.624;26.276;2023-12-04T06:36:06;100545.13;;;6.35;59.79
74958;BME280;63741;42.624;26.276;2023-12-04T06:38:39;100557.75;;;6.45;58.72
74958;BME280;63741;42.624;26.276;2023-12-04T06:41:07;100561.94;;;6.30;58.44
74958;BME280;63741;42.624;26.276;2023-12-04T06:43:35;100555.88;;;6.47;62.40
74958;BME280;63741;42.624;26.276;2023-12-04T06:46:02;100565.31;;;5.93;60.44
74958;BME280;63741;42.624;26.276;2023-12-04T06:48:30;100559.00;;;6.18;59.50
74958;BME280;63741;42.624;26.276;2023-12-04T06:50:57;100561.03;;;6.11;59.05
74958;BME280;63741;42.624;26.276;2023-12-04T06:53:24;100568.88;;;5.92;61.61
74958;BME280;63741;42.624;26.276;2023-12-04T06:55:51;100568.09;;;5.89;63.56
74958;BME280;63741;42.624;26.276;2023-12-04T06:58:18;100572.31;;;5.94;65.42
74958;BME280;63741;42.624;26.276;2023-12-04T07:00:45;100566.59;;;6.24;66.21
74958;BME280;63741;42.624;26.276;2023-12-04T07:03:12;100576.91;;;6.28;65.99
74958;BME280;63741;42.624;26.276;2023-12-04T07:05:39;100571.44;;;6.33;66.70
74958;BME280;63741;42.624;26.276;2023-12-04T07:08:06;100562.88;;;6.09;61.45
74958;BME280;63741;42.624;26.276;2023-12-04T07:10:33;100569.94;;;6.27;61.19
74958;BME280;63741;42.624;26.276;2023-12-04T07:13:01;100577.06;;;6.25;59.45
74958;BME280;63741;42.624;26.276;2023-12-04T07:15:28;100585.19;;;6.19;59.91
74958;BME280;63741;42.624;26.276;2023-12-04T07:17:55;100582.72;;;5.96;60.43
74958;BME280;63741;42.624;26.276;2023-12-04T07:20:23;100590.97;;;6.07;61.73
74958;BME280;63741;42.624;26.276;2023-12-04T07:22:51;100603.03;;;6.52;65.04
74958;BME280;63741;42.624;26.276;2023-12-04T07:25:18;100609.78;;;6.37;65.67
74958;BME280;63741;42.624;26.276;2023-12-04T07:27:45;100613.78;;;6.46;66.00
74958;BME280;63741;42.624;26.276;2023-12-04T07:30:13;100623.38;;;6.07;67.48
74958;BME280;63741;42.624;26.276;2023-12-04T07:32:44;100622.88;;;5.98;68.90
74958;BME280;63741;42.624;26.276;2023-12-04T07:35:12;100627.09;;;6.22;68.13
74958;BME280;63741;42.624;26.276;2023-12-04T07:37:39;100622.44;;;6.08;68.08
74958;BME280;63741;42.624;26.276;2023-12-04T07:40:07;100626.97;;;6.05;64.78
74958;BME280;63741;42.624;26.276;2023-12-04T07:42:35;100633.94;;;6.26;65.62
74958;BME280;63741;42.624;26.276;2023-12-04T07:45:03;100637.81;;;6.18;63.88
74958;BME280;63741;42.624;26.276;2023-12-04T07:47:30;100633.88;;;6.07;65.20
74958;BME280;63741;42.624;26.276;2023-12-04T07:49:58;100639.13;;;6.07;67.97
74958;BME280;63741;42.624;26.276;2023-12-04T07:52:26;100634.53;;;6.13;66.80
74958;BME280;63741;42.624;26.276;2023-12-04T07:54:54;100630.75;;;5.98;67.38
74958;BME280;63741;42.624;26.276;2023-12-04T07:57:22;100633.19;;;6.43;66.30
74958;BME280;63741;42.624;26.276;2023-12-04T07:59:49;100630.59;;;6.62;66.71
74958;BME280;63741;42.624;26.276;2023-12-04T08:02:18;100639.72;;;6.35;69.51
74958;BME280;63741;42.624;26.276;2023-12-04T08:04:45;100624.19;;;6.49;71.13
74958;BME280;63741;42.624;26.276;2023-12-04T08:07:12;100621.56;;;6.68;71.61
74958;BME280;63741;42.624;26.276;2023-12-04T08:09:39;100611.75;;;6.71;71.17
74958;BME280;63741;42.624;26.276;2023-12-04T08:12:06;100619.34;;;6.77;71.33
74958;BME280;63741;42.624;26.276;2023-12-04T08:14:33;100619.13;;;7.01;71.18
74958;BME280;63741;42.624;26.276;2023-12-04T08:17:00;100620.84;;;6.83;71.46
74958;BME280;63741;42.624;26.276;2023-12-04T08:19:27;100628.56;;;6.88;72.96
74958;BME280;63741;42.624;26.276;2023-12-04T08:21:55;100622.91;;;6.95;71.96
74958;BME280;63741;42.624;26.276;2023-12-04T08:24:23;100631.91;;;7.27;72.43
74958;BME280;63741;42.624;26.276;2023-12-04T08:26:50;100621.38;;;7.46;70.94
74958;BME280;63741;42.624;26.276;2023-12-04T08:29:17;100626.56;;;7.65;71.23
74958;BME280;63741;42.624;26.276;2023-12-04T08:31:44;100631.03;;;7.46;71.84
74958;BME280;63741;42.624;26.276;2023-12-04T08:34:11;100625.84;;;7.44;71.81
74958;BME280;63741;42.624;26.276;2023-12-04T08:36:38;100622.41;;;7.78;71.69
74958;BME280;63741;42.624;26.276;2023-12-04T08:39:12;100634.47;;;7.65;71.33
74958;BME280;63741;42.624;26.276;2023-12-04T08:41:40;100632.00;;;7.79;71.65
74958;BME280;63741;42.624;26.276;2023-12-04T08:44:16;100632.00;;;7.79;71.63
74958;BME280;63741;42.624;26.276;2023-12-04T08:46:44;100631.25;;;7.95;68.76
74958;BME280;63741;42.624;26.276;2023-12-04T08:49:11;100643.22;;;7.83;70.71
74958;BME280;63741;42.624;26.276;2023-12-04T08:51:38;100638.50;;;7.36;70.95
74958;BME280;63741;42.624;26.276;2023-12-04T08:54:06;100645.06;;;7.81;69.37
74958;BME280;63741;42.624;26.276;2023-12-04T08:56:36;100640.25;;;7.54;69.84
74958;BME280;63741;42.624;26.276;2023-12-04T08:59:03;100643.53;;;7.59;68.52
74958;BME280;63741;42.624;26.276;2023-12-04T09:01:30;100640.63;;;7.47;69.89
74958;BME280;63741;42.624;26.276;2023-12-04T09:03:58;100636.53;;;7.22;69.74
74958;BME280;63741;42.624;26.276;2023-12-04T09:06:26;100635.16;;;7.15;71.02
74958;BME280;63741;42.624;26.276;2023-12-04T09:09:13;100634.66;;;7.07;74.69
74958;BME280;63741;42.624;26.276;2023-12-04T09:11:43;100639.41;;;6.99;76.32
74958;BME280;63741;42.624;26.276;2023-12-04T09:14:10;100638.91;;;6.91;76.34
74958;BME280;63741;42.624;26.276;2023-12-04T09:16:38;100640.97;;;6.84;77.72
74958;BME280;63741;42.624;26.276;2023-12-04T09:19:05;100633.59;;;6.92;76.77
74958;BME280;63741;42.624;26.276;2023-12-04T09:21:32;100639.75;;;6.53;76.33
74958;BME280;63741;42.624;26.276;2023-12-04T09:23:59;100635.47;;;6.51;78.71
74958;BME280;63741;42.624;26.276;2023-12-04T09:26:26;100631.63;;;6.39;79.01
74958;BME280;63741;42.624;26.276;2023-12-04T09:28:54;100635.34;;;6.33;79.94
74958;BME280;63741;42.624;26.276;2023-12-04T09:31:21;100628.13;;;5.98;79.30
74958;BME280;63741;42.624;26.276;2023-12-04T09:33:48;100626.50;;;6.16;79.98
74958;BME280;63741;42.624;26.276;2023-12-04T09:36:15;100625.41;;;6.21;80.12
74958;BME280;63741;42.624;26.276;2023-12-04T09:38:43;100622.97;;;6.17;79.38
74958;BME280;63741;42.624;26.276;2023-12-04T09:41:12;100616.41;;;5.84;80.63
74958;BME280;63741;42.624;26.276;2023-12-04T09:43:40;100617.09;;;5.90;79.49
74958;BME280;63741;42.624;26.276;2023-12-04T09:46:08;100614.78;;;5.82;80.00
74958;BME280;63741;42.624;26.276;2023-12-04T09:48:38;100621.56;;;5.88;81.34
74958;BME280;63741;42.624;26.276;2023-12-04T09:51:06;100621.56;;;5.88;81.06
74958;BME280;63741;42.624;26.276;2023-12-04T09:53:35;100626.19;;;6.03;80.20
74958;BME280;63741;42.624;26.276;2023-12-04T09:56:07;100629.91;;;5.97;80.74
74958;BME280;63741;42.624;26.276;2023-12-04T09:58:34;100632.59;;;6.37;80.43
74958;BME280;63741;42.624;26.276;2023-12-04T10:01:07;100620.50;;;6.72;79.47
74958;BME280;63741;42.624;26.276;2023-12-04T10:03:38;100627.03;;;6.63;78.94
74958;BME280;63741;42.624;26.276;2023-12-04T10:06:07;100623.88;;;6.55;79.47
74958;BME280;63741;42.624;26.276;2023-12-04T10:08:35;100622.41;;;6.68;78.16
74958;BME280;63741;42.624;26.276;2023-12-04T10:11:02;100617.13;;;6.49;78.56
74958;BME280;63741;42.624;26.276;2023-12-04T10:13:29;100618.19;;;6.45;79.47
74958;BME280;63741;42.624;26.276;2023-12-04T10:16:36;100627.16;;;6.60;78.60
74958;BME280;63741;42.624;26.276;2023-12-04T10:21:49;100627.31;;;6.18;78.85
74958;BME280;63741;42.624;26.276;2023-12-04T10:24:32;100619.09;;;6.05;79.76
74958;BME280;63741;42.624;26.276;2023-12-04T10:27:09;100621.78;;;6.24;78.30
74958;BME280;63741;42.624;26.276;2023-12-04T10:29:49;100623.88;;;6.36;79.60
74958;BME280;63741;42.624;26.276;2023-12-04T10:32:20;100630.69;;;6.20;80.23
74958;BME280;63741;42.624;26.276;2023-12-04T10:34:48;100628.63;;;6.07;81.11
74958;BME280;63741;42.624;26.276;2023-12-04T10:37:15;100627.91;;;6.04;80.18
74958;BME280;63741;42.624;26.276;2023-12-04T10:39:50;100632.75;;;6.13;80.92
74958;BME280;63741;42.624;26.276;2023-12-04T10:42:28;100633.25;;;6.42;79.09
74958;BME280;63741;42.624;26.276;2023-12-04T10:44:57;100630.03;;;6.35;80.02
74958;BME280;63741;42.624;26.276;2023-12-04T10:47:24;100631.03;;;6.32;78.21
74958;BME280;63741;42.624;26.276;2023-12-04T10:49:52;100625.22;;;6.45;79.22
74958;BME280;63741;42.624;26.276;2023-12-04T10:52:20;100631.22;;;6.28;77.97
74958;BME280;63741;42.624;26.276;2023-12-04T10:54:48;100627.69;;;6.08;79.45
74958;BME280;63741;42.624;26.276;2023-12-04T10:57:26;100616.25;;;6.10;79.19
74958;BME280;63741;42.624;26.276;2023-12-04T10:59:57;100620.34;;;6.17;79.19
74958;BME280;63741;42.624;26.276;2023-12-04T11:02:26;100618.75;;;5.92;78.65
74958;BME280;63741;42.624;26.276;2023-12-04T11:05:11;100627.38;;;6.16;78.35
74958;BME280;63741;42.624;26.276;2023-12-04T11:07:48;100616.41;;;6.46;78.50
74958;BME280;63741;42.624;26.276;2023-12-04T11:10:50;100620.13;;;6.61;77.63
74958;BME280;63741;42.624;26.276;2023-12-04T11:13:27;100621.13;;;6.58;76.97
74958;BME280;63741;42.624;26.276;2023-12-04T11:16:06;100625.78;;;6.51;77.67
74958;BME280;63741;42.624;26.276;2023-12-04T11:18:37;100624.41;;;6.63;77.14
74958;BME280;63741;42.624;26.276;2023-12-04T11:21:10;100625.97;;;6.86;76.29
74958;BME280;63741;42.624;26.276;2023-12-04T11:23:38;100628.97;;;6.97;75.23
74958;BME280;63741;42.624;26.276;2023-12-04T11:26:07;100631.00;;;6.91;75.61
74958;BME280;63741;42.624;26.276;2023-12-04T11:28:36;100623.47;;;6.83;76.27
74958;BME280;63741;42.624;26.276;2023-12-04T11:31:06;100631.16;;;6.69;77.34
74958;BME280;63741;42.624;26.276;2023-12-04T11:33:37;100632.56;;;6.57;76.79
74958;BME280;63741;42.624;26.276;2023-12-04T11:36:12;100621.13;;;6.58;75.22
74958;BME280;63741;42.624;26.276;2023-12-04T11:38:44;100619.66;;;6.71;76.68
74958;BME280;63741;42.624;26.276;2023-12-04T11:41:19;100619.78;;;6.87;75.28
74958;BME280;63741;42.624;26.276;2023-12-04T11:43:55;100614.00;;;6.60;75.53
74958;BME280;63741;42.624;26.276;2023-12-04T11:46:24;100623.84;;;6.75;77.63
74958;BME280;63741;42.624;26.276;2023-12-04T11:48:57;100616.47;;;6.83;75.80
74958;BME280;63741;42.624;26.276;2023-12-04T11:54:16;100603.66;;;6.76;75.40
74958;BME280;63741;42.624;26.276;2023-12-04T11:57:19;100611.47;;;6.77;75.44
74958;BME280;63741;42.624;26.276;2023-12-04T11:59:52;100608.50;;;6.66;75.72
74958;BME280;63741;42.624;26.276;2023-12-04T12:02:19;100605.69;;;6.69;77.28
74958;BME280;63741;42.624;26.276;2023-12-04T12:04:47;100601.50;;;6.65;75.87
74958;BME280;63741;42.624;26.276;2023-12-04T12:07:14;100607.19;;;6.56;76.15
74958;BME280;63741;42.624;26.276;2023-12-04T12:09:41;100609.16;;;6.51;77.17
74958;BME280;63741;42.624;26.276;2023-12-04T12:12:09;100606.38;;;6.74;76.30
74958;BME280;63741;42.624;26.276;2023-12-04T12:14:36;100603.38;;;6.82;74.14
74958;BME280;63741;42.624;26.276;2023-12-04T12:17:03;100606.38;;;6.74;75.61
74958;BME280;63741;42.624;26.276;2023-12-04T12:19:30;100603.78;;;6.73;75.59
74958;BME280;63741;42.624;26.276;2023-12-04T12:21:57;100612.69;;;6.70;76.46
74958;BME280;63741;42.624;26.276;2023-12-04T12:24:24;100611.75;;;6.90;75.34
74958;BME280;63741;42.624;26.276;2023-12-04T12:26:54;100617.22;;;6.67;76.18
74958;BME280;63741;42.624;26.276;2023-12-04T12:29:22;100606.84;;;6.64;76.01
74958;BME280;63741;42.624;26.276;2023-12-04T12:31:50;100606.00;;;6.63;75.56
74958;BME280;63741;42.624;26.276;2023-12-04T12:34:17;100611.84;;;6.70;74.98
74958;BME280;63741;42.624;26.276;2023-12-04T12:36:45;100613.59;;;6.69;75.31
74958;BME280;63741;42.624;26.276;2023-12-04T12:39:12;100610.28;;;6.66;74.82
74958;BME280;63741;42.624;26.276;2023-12-04T12:41:39;100606.84;;;6.64;75.35
74958;BME280;63741;42.624;26.276;2023-12-04T12:44:06;100613.66;;;6.87;75.03
74958;BME280;63741;42.624;26.276;2023-12-04T12:46:33;100610.41;;;6.63;75.17
74958;BME280;63741;42.624;26.276;2023-12-04T12:49:00;100612.03;;;6.65;74.13
74958;BME280;63741;42.624;26.276;2023-12-04T12:51:28;100619.00;;;6.66;74.88
74958;BME280;63741;42.624;26.276;2023-12-04T12:53:56;100612.91;;;6.66;75.98
74958;BME280;63741;42.624;26.276;2023-12-04T12:56:25;100615.06;;;6.56;75.40
74958;BME280;63741;42.624;26.276;2023-12-04T12:58:55;100612.81;;;6.67;75.39
74958;BME280;63741;42.624;26.276;2023-12-04T13:01:24;100616.22;;;6.69;75.80
74958;BME280;63741;42.624;26.276;2023-12-04T13:03:52;100620.00;;;6.82;75.96